createdAt,value
2022-09-18T00:01:27.317Z,96.59
2022-09-18T00:03:57.194Z,97.62
2022-09-18T00:06:27.288Z,98.01
2022-09-18T00:08:55.443Z,96.77
2022-09-18T00:11:23.798Z,97.42
2022-09-18T00:13:50.429Z,97.64
2022-09-18T00:16:18.873Z,97.44
2022-09-18T00:18:45.526Z,98.17
2022-09-18T00:21:17.558Z,97.31
2022-09-18T00:23:45.288Z,98.86
2022-09-18T00:26:13.517Z,98.64
2022-09-18T00:28:40.020Z,98.60
2022-09-18T00:31:09.019Z,99.03
2022-09-18T00:33:36.114Z,99.07
2022-09-18T00:36:05.328Z,98.34
2022-09-18T00:38:32.245Z,98.90
2022-09-18T00:41:00.497Z,98.33
2022-09-18T00:43:30.578Z,98.69
2022-09-18T00:46:06.072Z,97.96
2022-09-18T00:48:57.587Z,97.94
2022-09-18T00:51:25.900Z,99.24
2022-09-18T00:54:34.254Z,98.17
2022-09-18T00:57:04.897Z,99.37
2022-09-18T00:59:33.766Z,97.75
2022-09-18T01:02:00.872Z,98.63
2022-09-18T01:04:28.466Z,97.93
2022-09-18T01:07:13.606Z,97.30
2022-09-18T01:09:49.043Z,97.68
2022-09-18T01:12:31.581Z,98.16
2022-09-18T01:15:08.844Z,97.59
2022-09-18T01:17:54.578Z,97.45
2022-09-18T01:21:02.556Z,97.30
2022-09-18T01:23:53.629Z,98.69
2022-09-18T01:26:41.800Z,97.47
2022-09-18T01:29:17.567Z,97.16
2022-09-18T01:31:56.432Z,97.26
2022-09-18T01:34:28.755Z,97.54
2022-09-18T01:37:06.463Z,96.83
2022-09-18T01:40:00.229Z,97.85
2022-09-18T01:42:29.762Z,97.64
2022-09-18T01:45:02.116Z,97.60
2022-09-18T01:47:35.670Z,97.43
2022-09-18T01:50:04.499Z,97.84
2022-09-18T01:52:41.174Z,97.17
2022-09-18T01:55:15.253Z,97.15
2022-09-18T01:57:54.344Z,96.70
2022-09-18T02:00:21.994Z,96.45
2022-09-18T02:02:54.127Z,96.13
2022-09-18T02:05:26.221Z,96.53
2022-09-18T02:08:09.194Z,96.84
2022-09-18T02:10:42.595Z,96.65
2022-09-18T02:13:12.183Z,97.44
2022-09-18T02:15:41.405Z,97.26
2022-09-18T02:18:18.351Z,97.48
2022-09-18T02:20:46.913Z,98.24
2022-09-18T02:23:14.407Z,98.40
2022-09-18T02:26:08.242Z,98.58
2022-09-18T02:28:37.155Z,99.39
2022-09-18T02:31:03.815Z,98.71
2022-09-18T02:33:32.787Z,99.23
2022-09-18T02:36:21.294Z,98.90
2022-09-18T02:38:59.060Z,100.00
2022-09-18T02:41:37.670Z,100.00
2022-09-18T02:44:16.700Z,100.00
2022-09-18T02:47:01.167Z,100.00
2022-09-18T02:49:55.365Z,100.00
2022-09-18T02:52:29.783Z,100.00
2022-09-18T02:55:04.526Z,100.00
2022-09-18T02:57:37.540Z,100.00
2022-09-18T03:00:05.710Z,100.00
2022-09-18T03:02:32.404Z,100.00
2022-09-18T03:04:59.015Z,100.00
2022-09-18T03:07:25.489Z,100.00
2022-09-18T03:09:51.947Z,100.00
2022-09-18T03:12:18.393Z,100.00
2022-09-18T03:14:44.832Z,100.00
2022-09-18T03:17:11.443Z,100.00
2022-09-18T03:19:38.360Z,100.00
2022-09-18T03:22:05.167Z,100.00
2022-09-18T03:24:31.704Z,100.00
2022-09-18T03:26:58.190Z,100.00
2022-09-18T03:29:24.617Z,100.00
2022-09-18T03:31:51.161Z,100.00
2022-09-18T03:34:17.811Z,100.00
2022-09-18T03:36:45.210Z,100.00
2022-09-18T03:39:11.634Z,100.00
2022-09-18T03:41:38.093Z,100.00
2022-09-18T03:44:04.823Z,100.00
2022-09-18T03:46:31.584Z,100.00
2022-09-18T03:48:58.106Z,100.00
2022-09-18T03:51:24.627Z,100.00
2022-09-18T03:53:51.245Z,100.00
2022-09-18T03:56:18.051Z,100.00
2022-09-18T03:58:45.007Z,100.00
2022-09-18T04:01:13.537Z,100.00
2022-09-18T04:03:39.973Z,100.00
2022-09-18T04:06:07.327Z,100.00
2022-09-18T04:08:34.243Z,100.00
2022-09-18T04:11:00.753Z,100.00
2022-09-18T04:13:27.651Z,100.00
2022-09-18T04:15:54.485Z,100.00
2022-09-18T04:18:20.950Z,100.00
2022-09-18T04:20:47.460Z,100.00
2022-09-18T04:23:14.493Z,100.00
2022-09-18T04:25:41.746Z,100.00
2022-09-18T04:28:08.363Z,100.00
2022-09-18T04:30:34.824Z,100.00
2022-09-18T04:33:01.367Z,100.00
2022-09-18T04:35:28.137Z,100.00
2022-09-18T04:37:54.601Z,100.00
2022-09-18T04:40:21.166Z,100.00
2022-09-18T04:42:47.713Z,100.00
2022-09-18T04:45:14.308Z,100.00
2022-09-18T04:47:41.256Z,100.00
2022-09-18T04:50:08.865Z,100.00
2022-09-18T04:52:36.075Z,100.00
2022-09-18T04:55:02.554Z,100.00
2022-09-18T04:57:29.012Z,100.00
2022-09-18T04:59:55.451Z,100.00
2022-09-18T05:02:23.239Z,100.00
2022-09-18T05:04:49.823Z,100.00
2022-09-18T05:07:16.376Z,100.00
2022-09-18T05:09:42.935Z,100.00
2022-09-18T05:12:09.909Z,100.00
2022-09-18T05:14:36.426Z,100.00
2022-09-18T05:17:02.948Z,100.00
2022-09-18T05:19:29.364Z,100.00
2022-09-18T05:21:55.838Z,100.00
2022-09-18T05:24:22.294Z,100.00
2022-09-18T05:26:48.837Z,100.00
2022-09-18T05:29:15.262Z,100.00
2022-09-18T05:31:42.139Z,100.00
2022-09-18T05:34:08.700Z,100.00
2022-09-18T05:36:35.418Z,100.00
2022-09-18T05:39:01.955Z,100.00
2022-09-18T05:41:28.433Z,100.00
2022-09-18T05:43:55.410Z,100.00
2022-09-18T05:46:22.116Z,100.00
2022-09-18T05:48:49.975Z,100.00
2022-09-18T05:51:16.775Z,100.00
2022-09-18T05:53:48.235Z,100.00
2022-09-18T05:56:16.282Z,100.00
2022-09-18T05:58:43.194Z,100.00
2022-09-18T06:01:09.880Z,100.00
2022-09-18T06:03:36.375Z,100.00
2022-09-18T06:06:02.863Z,100.00
2022-09-18T06:08:29.354Z,100.00
2022-09-18T06:10:59.683Z,100.00
2022-09-18T06:13:26.321Z,100.00
2022-09-18T06:15:52.987Z,100.00
2022-09-18T06:18:19.503Z,100.00
2022-09-18T06:20:53.698Z,100.00
2022-09-18T06:23:21.472Z,100.00
2022-09-18T06:25:47.977Z,100.00
2022-09-18T06:28:14.603Z,100.00
2022-09-18T06:30:41.030Z,100.00
2022-09-18T06:33:09.464Z,100.00
2022-09-18T06:35:40.095Z,100.00
2022-09-18T06:38:07.370Z,100.00
2022-09-18T06:40:35.000Z,100.00
2022-09-18T06:43:03.149Z,100.00
2022-09-18T06:45:31.238Z,100.00
2022-09-18T06:48:04.711Z,100.00
2022-09-18T06:50:31.556Z,100.00
2022-09-18T06:53:08.763Z,100.00
2022-09-18T06:55:38.199Z,100.00
2022-09-18T06:58:04.629Z,100.00
2022-09-18T07:00:31.464Z,100.00
2022-09-18T07:03:00.188Z,100.00
2022-09-18T07:05:28.403Z,100.00
2022-09-18T07:07:55.009Z,100.00
2022-09-18T07:10:21.766Z,100.00
2022-09-18T07:12:49.007Z,100.00
2022-09-18T07:15:17.395Z,100.00
2022-09-18T07:17:44.306Z,100.00
2022-09-18T07:20:12.363Z,100.00
2022-09-18T07:22:42.689Z,100.00
2022-09-18T07:25:12.951Z,100.00
2022-09-18T07:27:39.451Z,100.00
2022-09-18T07:30:06.371Z,100.00
2022-09-18T07:32:35.458Z,100.00
2022-09-18T07:35:01.923Z,100.00
2022-09-18T07:37:28.446Z,100.00
2022-09-18T07:39:55.405Z,100.00
2022-09-18T07:42:22.018Z,100.00
2022-09-18T07:44:48.521Z,100.00
2022-09-18T07:47:15.072Z,100.00
2022-09-18T07:49:42.616Z,100.00
2022-09-18T07:52:09.392Z,98.46
2022-09-18T07:54:36.311Z,98.72
2022-09-18T07:57:03.393Z,98.96
2022-09-18T07:59:29.913Z,97.71
2022-09-18T08:01:56.932Z,96.97
2022-09-18T08:04:23.499Z,97.57
2022-09-18T08:06:54.203Z,98.24
2022-09-18T08:09:21.936Z,95.78
2022-09-18T08:11:52.354Z,94.86
2022-09-18T08:14:18.908Z,94.81
2022-09-18T08:16:45.720Z,94.50
2022-09-18T08:19:12.997Z,93.96
2022-09-18T08:21:39.530Z,94.32
2022-09-18T08:24:06.195Z,94.43
2022-09-18T08:26:35.876Z,95.70
2022-09-18T08:29:02.375Z,93.42
2022-09-18T08:31:28.941Z,93.88
2022-09-18T08:33:55.594Z,91.34
2022-09-18T08:36:22.070Z,92.48
2022-09-18T08:38:48.558Z,92.41
2022-09-18T08:41:27.281Z,92.01
2022-09-18T08:43:53.777Z,89.86
2022-09-18T08:46:26.406Z,91.29
2022-09-18T08:49:12.957Z,91.28
2022-09-18T08:52:13.321Z,90.69
2022-09-18T08:55:02.662Z,90.49
2022-09-18T08:57:42.555Z,90.89
2022-09-18T09:00:27.108Z,90.69
2022-09-18T09:03:00.691Z,90.99
2022-09-18T09:05:34.868Z,91.62
2022-09-18T09:08:07.251Z,91.95
2022-09-18T09:10:55.975Z,90.38
2022-09-18T09:13:28.621Z,90.43
2022-09-18T09:16:11.659Z,90.29
2022-09-18T09:18:45.287Z,91.49
2022-09-18T09:21:29.962Z,91.36
2022-09-18T09:24:08.707Z,92.26
2022-09-18T09:26:37.252Z,93.72
2022-09-18T09:29:14.649Z,97.88
2022-09-18T09:31:47.266Z,97.54
2022-09-18T09:34:26.480Z,97.02
2022-09-18T09:36:56.756Z,99.14
2022-09-18T09:39:29.342Z,98.29
2022-09-18T09:42:05.587Z,95.86
2022-09-18T09:44:52.561Z,97.73
2022-09-18T09:47:45.763Z,96.30
2022-09-18T09:50:50.249Z,94.61
2022-09-18T09:53:17.094Z,95.45
2022-09-18T09:55:47.337Z,96.01
2022-09-18T09:58:39.067Z,94.94
2022-09-18T10:01:15.449Z,95.29
2022-09-18T10:04:05.419Z,92.33
2022-09-18T10:06:43.058Z,90.02
2022-09-18T10:09:21.098Z,89.91
2022-09-18T10:11:58.018Z,91.39
2022-09-18T10:14:27.996Z,89.77
2022-09-18T10:17:15.885Z,90.51
2022-09-18T10:19:43.686Z,88.18
2022-09-18T10:22:15.767Z,90.08
2022-09-18T10:25:01.012Z,89.58
2022-09-18T10:27:27.589Z,87.69
2022-09-18T10:29:54.451Z,86.79
2022-09-18T10:32:53.111Z,87.95
2022-09-18T10:35:41.302Z,88.66
2022-09-18T10:38:30.443Z,88.28
2022-09-18T10:41:21.546Z,89.21
2022-09-18T10:43:58.736Z,89.31
2022-09-18T10:46:32.170Z,91.50
2022-09-18T10:49:04.146Z,90.43
2022-09-18T10:51:30.716Z,92.38
2022-09-18T10:54:29.801Z,91.22
2022-09-18T10:56:57.059Z,91.97
2022-09-18T10:59:29.417Z,91.02
2022-09-18T11:01:57.951Z,89.27
2022-09-18T11:04:25.330Z,89.13
2022-09-18T11:06:56.529Z,89.78
2022-09-18T11:09:37.434Z,89.45
2022-09-18T11:12:04.403Z,90.28
2022-09-18T11:14:43.951Z,89.90
2022-09-18T11:17:32.156Z,91.03
2022-09-18T11:20:01.656Z,93.37
2022-09-18T11:22:42.784Z,95.88
2022-09-18T11:25:19.150Z,94.39
2022-09-18T11:27:52.739Z,96.94
2022-09-18T11:30:25.835Z,96.47
2022-09-18T11:32:58.510Z,96.00
2022-09-18T11:35:28.520Z,96.42
2022-09-18T11:37:59.695Z,97.72
2022-09-18T11:40:31.474Z,97.25
2022-09-18T11:42:59.175Z,97.80
2022-09-18T11:45:37.731Z,94.95
2022-09-18T11:48:24.973Z,96.03
2022-09-18T11:50:56.268Z,97.86
2022-09-18T11:53:27.197Z,97.91
2022-09-18T11:56:07.291Z,98.72
2022-09-18T11:58:48.181Z,99.25
2022-09-18T12:01:31.480Z,99.24
2022-09-18T12:04:08.197Z,98.16
2022-09-18T12:07:01.056Z,100.00
2022-09-18T12:09:52.451Z,97.93
2022-09-18T12:12:25.289Z,96.71
2022-09-18T12:15:03.404Z,96.40
2022-09-18T12:17:47.391Z,96.03
2022-09-18T12:20:21.729Z,96.68
2022-09-18T12:22:53.616Z,95.97
2022-09-18T12:25:27.938Z,95.26
2022-09-18T12:28:32.596Z,96.22
2022-09-18T12:31:08.590Z,94.59
2022-09-18T12:33:47.722Z,92.05
2022-09-18T12:36:33.757Z,92.37
2022-09-18T12:39:25.732Z,92.52
2022-09-18T12:42:13.419Z,92.15
2022-09-18T12:45:01.371Z,91.34
2022-09-18T12:47:57.836Z,90.21
2022-09-18T12:50:51.010Z,89.40
2022-09-18T12:53:20.240Z,89.06
2022-09-18T12:55:58.414Z,87.15
2022-09-18T12:58:37.733Z,87.17
2022-09-18T13:01:18.824Z,85.73
2022-09-18T13:03:48.718Z,85.80
2022-09-18T13:06:22.530Z,87.16
2022-09-18T13:09:02.080Z,86.55
2022-09-18T13:11:36.809Z,86.68
2022-09-18T13:14:16.016Z,86.89
2022-09-18T13:16:56.156Z,86.88
2022-09-18T13:19:28.283Z,86.75
2022-09-18T13:21:57.473Z,88.76
2022-09-18T13:24:33.823Z,86.44
2022-09-18T13:27:03.745Z,86.22
2022-09-18T13:30:13.048Z,86.02
2022-09-18T13:32:41.767Z,86.77
2022-09-18T13:35:22.205Z,88.31
2022-09-18T13:38:02.970Z,86.20
2022-09-18T13:40:45.572Z,88.05
2022-09-18T13:43:20.955Z,89.18
2022-09-18T13:45:48.016Z,88.55
2022-09-18T13:48:26.261Z,90.48
2022-09-18T13:50:56.925Z,90.45
2022-09-18T13:53:36.285Z,92.24
2022-09-18T13:56:07.748Z,95.47
2022-09-18T13:58:35.471Z,95.03
2022-09-18T14:01:03.287Z,98.40
2022-09-18T14:03:39.226Z,100.00
2022-09-18T14:06:36.728Z,100.00
2022-09-18T14:09:44.605Z,100.00
2022-09-18T14:12:16.575Z,100.00
2022-09-18T14:14:44.687Z,100.00
2022-09-18T14:17:14.080Z,100.00
2022-09-18T14:19:45.040Z,100.00
2022-09-18T14:22:27.738Z,100.00
2022-09-18T14:24:57.724Z,100.00
2022-09-18T14:27:30.223Z,100.00
2022-09-18T14:30:04.276Z,100.00
2022-09-18T14:32:33.777Z,100.00
2022-09-18T14:35:28.095Z,100.00
2022-09-18T14:37:54.619Z,100.00
2022-09-18T14:40:24.104Z,100.00
2022-09-18T14:42:51.316Z,100.00
2022-09-18T14:45:26.248Z,100.00
2022-09-18T14:47:52.999Z,100.00
2022-09-18T14:50:37.524Z,100.00
2022-09-18T14:53:25.943Z,100.00
2022-09-18T14:56:03.266Z,100.00
2022-09-18T14:58:43.822Z,100.00
2022-09-18T15:01:29.311Z,100.00
2022-09-18T15:03:58.342Z,100.00
2022-09-18T15:06:51.464Z,100.00
2022-09-18T15:09:28.632Z,100.00
2022-09-18T15:12:03.499Z,100.00
2022-09-18T15:14:42.707Z,100.00
2022-09-18T15:17:47.149Z,100.00
2022-09-18T15:20:17.270Z,100.00
2022-09-18T15:22:43.798Z,100.00
2022-09-18T15:25:14.734Z,100.00
2022-09-18T15:27:43.727Z,100.00
2022-09-18T15:30:20.206Z,100.00
2022-09-18T15:32:52.173Z,100.00
2022-09-18T15:35:23.617Z,100.00
2022-09-18T15:37:57.954Z,100.00
2022-09-18T15:40:30.214Z,100.00
2022-09-18T15:42:59.805Z,100.00
2022-09-18T15:45:29.650Z,100.00
2022-09-18T15:47:58.997Z,100.00
2022-09-18T15:50:39.617Z,100.00
2022-09-18T15:53:21.133Z,100.00
2022-09-18T15:56:19.067Z,100.00
2022-09-18T15:58:51.831Z,100.00
2022-09-18T16:01:24.983Z,100.00
2022-09-18T16:04:25.720Z,100.00
2022-09-18T16:07:05.199Z,100.00
2022-09-18T16:09:43.875Z,100.00
2022-09-18T16:12:41.992Z,100.00
2022-09-18T16:15:11.117Z,100.00
2022-09-18T16:17:59.265Z,100.00
2022-09-18T16:20:29.982Z,100.00
2022-09-18T16:23:04.712Z,100.00
2022-09-18T16:25:35.998Z,100.00
2022-09-18T16:28:07.016Z,100.00
2022-09-18T16:30:33.673Z,100.00
2022-09-18T16:33:17.129Z,100.00
2022-09-18T16:35:43.677Z,100.00
2022-09-18T16:38:10.175Z,100.00
2022-09-18T16:40:37.372Z,100.00
2022-09-18T16:43:03.880Z,100.00
2022-09-18T16:45:30.977Z,100.00
2022-09-18T16:48:00.680Z,100.00
2022-09-18T16:50:28.078Z,100.00
2022-09-18T16:52:58.474Z,100.00
2022-09-18T16:55:28.619Z,100.00
2022-09-18T16:57:55.505Z,100.00
2022-09-18T17:00:22.142Z,100.00
2022-09-18T17:02:49.710Z,100.00
2022-09-18T17:05:16.403Z,100.00
2022-09-18T17:07:43.882Z,100.00
2022-09-18T17:10:12.600Z,100.00
2022-09-18T17:12:40.929Z,100.00
2022-09-18T17:15:09.117Z,100.00
2022-09-18T17:17:36.247Z,100.00
2022-09-18T17:20:04.843Z,100.00
2022-09-18T17:22:31.996Z,100.00
2022-09-18T17:24:58.630Z,100.00
2022-09-18T17:27:25.967Z,100.00
2022-09-18T17:29:52.526Z,100.00
2022-09-18T17:32:19.066Z,100.00
2022-09-18T17:34:45.621Z,100.00
2022-09-18T17:37:12.183Z,100.00
2022-09-18T17:39:39.031Z,100.00
2022-09-18T17:42:05.731Z,100.00
2022-09-18T17:44:34.663Z,100.00
2022-09-18T17:47:01.671Z,100.00
2022-09-18T17:49:32.134Z,100.00
2022-09-18T17:51:59.805Z,100.00
2022-09-18T17:54:29.196Z,100.00
2022-09-18T17:56:55.965Z,100.00
2022-09-18T17:59:22.907Z,100.00
2022-09-18T18:01:50.000Z,100.00
2022-09-18T18:04:17.952Z,100.00
2022-09-18T18:06:47.932Z,100.00
2022-09-18T18:09:15.319Z,100.00
2022-09-18T18:11:46.141Z,100.00
2022-09-18T18:14:13.561Z,100.00
2022-09-18T18:16:41.468Z,100.00
2022-09-18T18:19:12.220Z,100.00
2022-09-18T18:21:43.146Z,100.00
2022-09-18T18:24:16.371Z,100.00
2022-09-18T18:26:44.074Z,100.00
2022-09-18T18:29:17.089Z,100.00
2022-09-18T18:31:43.785Z,100.00
2022-09-18T18:34:11.938Z,100.00
2022-09-18T18:36:42.888Z,100.00
2022-09-18T18:39:12.547Z,100.00
2022-09-18T18:41:39.791Z,100.00
2022-09-18T18:44:07.068Z,100.00
2022-09-18T18:46:36.370Z,100.00
2022-09-18T18:49:11.723Z,100.00
2022-09-18T18:51:43.033Z,100.00
2022-09-18T18:54:11.018Z,100.00
2022-09-18T18:56:38.846Z,100.00
2022-09-18T18:59:07.360Z,100.00
2022-09-18T19:01:34.068Z,100.00
2022-09-18T19:04:03.522Z,100.00
2022-09-18T19:06:30.132Z,100.00
2022-09-18T19:09:03.312Z,100.00
2022-09-18T19:11:34.013Z,100.00
2022-09-18T19:14:00.765Z,100.00
2022-09-18T19:16:29.110Z,100.00
2022-09-18T19:19:01.467Z,100.00
2022-09-18T19:21:28.736Z,100.00
2022-09-18T19:23:59.205Z,100.00
2022-09-18T19:26:27.663Z,100.00
2022-09-18T19:28:57.180Z,100.00
2022-09-18T19:31:25.207Z,100.00
2022-09-18T19:33:52.658Z,100.00
2022-09-18T19:36:25.060Z,100.00
2022-09-18T19:38:53.241Z,100.00
2022-09-18T19:41:22.469Z,100.00
2022-09-18T19:43:49.251Z,100.00
2022-09-18T19:46:24.237Z,100.00
2022-09-18T19:48:51.654Z,100.00
2022-09-18T19:51:18.198Z,100.00
2022-09-18T19:53:44.780Z,100.00
2022-09-18T19:56:32.969Z,100.00
2022-09-18T19:59:00.005Z,100.00
2022-09-18T20:01:26.558Z,100.00
2022-09-18T20:03:54.060Z,100.00
2022-09-18T20:06:21.364Z,100.00
2022-09-18T20:08:47.904Z,100.00
2022-09-18T20:11:14.509Z,100.00
2022-09-18T20:13:41.101Z,100.00
2022-09-18T20:16:10.331Z,100.00
2022-09-18T20:18:37.831Z,100.00
2022-09-18T20:21:09.384Z,100.00
2022-09-18T20:23:36.234Z,100.00
2022-09-18T20:26:16.961Z,100.00
2022-09-18T20:28:46.597Z,100.00
2022-09-18T20:31:15.456Z,100.00
2022-09-18T20:33:42.436Z,100.00
2022-09-18T20:36:11.382Z,100.00
2022-09-18T20:38:40.772Z,100.00
2022-09-18T20:41:13.140Z,100.00
2022-09-18T20:43:41.792Z,100.00
2022-09-18T20:46:17.177Z,100.00
2022-09-18T20:48:46.372Z,100.00
2022-09-18T20:51:14.310Z,100.00
2022-09-18T20:53:43.175Z,100.00
2022-09-18T20:56:11.805Z,100.00
2022-09-18T20:58:42.112Z,100.00
2022-09-18T21:01:11.450Z,100.00
2022-09-18T21:03:42.750Z,100.00
2022-09-18T21:06:21.813Z,100.00
2022-09-18T21:08:53.089Z,100.00
2022-09-18T21:11:23.152Z,100.00
2022-09-18T21:13:58.000Z,100.00
2022-09-18T21:16:26.628Z,100.00
2022-09-18T21:18:55.721Z,100.00
2022-09-18T21:21:23.020Z,100.00
2022-09-18T21:24:01.242Z,100.00
2022-09-18T21:26:33.076Z,100.00
2022-09-18T21:29:20.864Z,100.00
2022-09-18T21:31:50.481Z,100.00
2022-09-18T21:34:24.271Z,100.00
2022-09-18T21:36:52.953Z,100.00
2022-09-18T21:39:19.547Z,100.00
2022-09-18T21:41:46.535Z,100.00
2022-09-18T21:44:18.050Z,100.00
2022-09-18T21:46:47.927Z,100.00
2022-09-18T21:49:16.023Z,100.00
2022-09-18T21:51:43.060Z,100.00
2022-09-18T21:54:14.764Z,100.00
2022-09-18T21:56:42.102Z,100.00
2022-09-18T21:59:10.218Z,100.00
2022-09-18T22:01:38.162Z,100.00
2022-09-18T22:04:07.267Z,100.00
2022-09-18T22:06:46.818Z,100.00
2022-09-18T22:09:17.623Z,100.00
2022-09-18T22:11:45.419Z,100.00
2022-09-18T22:14:15.519Z,100.00
2022-09-18T22:16:44.024Z,100.00
2022-09-18T22:19:10.578Z,100.00
2022-09-18T22:21:40.066Z,100.00
2022-09-18T22:24:09.126Z,100.00
2022-09-18T22:26:38.603Z,100.00
2022-09-18T22:29:08.403Z,100.00
2022-09-18T22:31:36.428Z,100.00
2022-09-18T22:34:03.622Z,100.00
2022-09-18T22:36:30.131Z,100.00
2022-09-18T22:38:56.785Z,100.00
2022-09-18T22:41:23.435Z,100.00
2022-09-18T22:43:56.929Z,100.00
2022-09-18T22:46:25.320Z,100.00
2022-09-18T22:48:52.336Z,100.00
2022-09-18T22:51:27.180Z,100.00
2022-09-18T22:53:56.514Z,100.00
2022-09-18T22:56:24.833Z,100.00
2022-09-18T22:58:52.094Z,100.00
2022-09-18T23:01:22.850Z,100.00
2022-09-18T23:03:53.492Z,100.00
2022-09-18T23:06:22.632Z,100.00
2022-09-18T23:08:55.929Z,100.00
2022-09-18T23:11:25.281Z,100.00
2022-09-18T23:14:00.456Z,100.00
2022-09-18T23:16:28.633Z,100.00
2022-09-18T23:18:58.556Z,100.00
2022-09-18T23:21:31.535Z,100.00
2022-09-18T23:24:00.611Z,100.00
2022-09-18T23:26:33.127Z,100.00
2022-09-18T23:29:01.204Z,100.00
2022-09-18T23:31:31.452Z,100.00
2022-09-18T23:34:06.472Z,100.00
2022-09-18T23:36:39.204Z,100.00
2022-09-18T23:39:10.281Z,100.00
2022-09-18T23:41:38.036Z,100.00
2022-09-18T23:44:07.555Z,100.00
2022-09-18T23:46:34.431Z,100.00
2022-09-18T23:49:01.370Z,100.00
2022-09-18T23:51:29.945Z,100.00
2022-09-18T23:53:59.832Z,100.00
2022-09-18T23:56:29.091Z,100.00
2022-09-18T23:58:59.731Z,100.00
